Time;durP1;ratioP1;P1;durP2;ratioP2;P2;SDS_P1;SDS_P2;PMS_P1;PMS_P2;Temp;Humidity;BMP_temperature;BMP_pressure;BME280_temperature;BME280_humidity;BME280_pressure;Samples;Min_cycle;Max_cycle;Signal;HPM_P1;HPM_P2
2022/09/21 02:48:02;;;;;;;2.80;0.47;;;8.40;99.40;;;;;;5142008;23;87277;-79
2022/09/21 02:50:46;;;;;;;3.50;0.40;;;8.40;99.10;;;;;;4900495;28;86551;-77
2022/09/21 02:53:17;;;;;;;3.13;0.47;;;8.30;99.40;;;;;;4913738;28;87126;-80
2022/09/21 02:55:45;;;;;;;5.75;0.57;;;8.20;99.90;;;;;;4918826;28;86705;-76
2022/09/21 02:58:14;;;;;;;3.97;0.32;;;8.20;99.90;;;;;;4925321;28;86140;-76
2022/09/21 03:00:40;;;;;;;4.63;0.70;;;8.20;99.90;;;;;;4924292;28;87732;-76
2022/09/21 03:03:18;;;;;;;8.30;0.77;;;8.10;99.90;;;;;;4919299;28;88110;-80
2022/09/21 03:05:47;;;;;;;2.08;0.45;;;8.10;99.90;;;;;;4911236;28;86166;-76
2022/09/21 03:08:13;;;;;;;2.90;0.82;;;8.10;99.90;;;;;;4923627;28;86762;-76
2022/09/21 03:10:39;;;;;;;3.00;0.50;;;8.00;99.90;;;;;;4925153;28;87254;-78
2022/09/21 03:13:09;;;;;;;2.97;0.32;;;7.90;99.90;;;;;;4925572;28;86589;-78
2022/09/21 03:15:39;;;;;;;3.20;0.80;;;7.90;99.90;;;;;;4926600;28;86283;-78
2022/09/21 03:18:08;;;;;;;4.78;0.70;;;7.90;99.90;;;;;;4926225;28;85525;-76
2022/09/21 03:20:39;;;;;;;2.72;0.55;;;7.90;99.90;;;;;;4918052;28;86307;-77
2022/09/21 03:23:05;;;;;;;2.40;0.50;;;7.90;99.90;;;;;;4925015;28;86958;-77
2022/09/21 03:25:32;;;;;;;2.15;0.70;;;7.90;99.90;;;;;;4925452;28;87158;-75
2022/09/21 03:27:59;;;;;;;2.92;0.57;;;7.90;99.90;;;;;;4924891;28;86834;-77
2022/09/21 03:30:26;;;;;;;1.45;0.40;;;7.80;99.90;;;;;;4924193;28;87254;-77
2022/09/21 03:32:52;;;;;;;5.03;0.57;;;7.80;99.90;;;;;;4923698;28;86985;-75
2022/09/21 03:35:20;;;;;;;2.60;0.50;;;7.70;99.90;;;;;;4923493;28;86711;-75
2022/09/21 03:37:47;;;;;;;1.52;0.40;;;7.60;99.90;;;;;;4915158;28;86892;-76
2022/09/21 03:40:13;;;;;;;2.42;0.47;;;7.60;99.90;;;;;;4908721;28;87209;-75
2022/09/21 03:42:40;;;;;;;2.17;0.40;;;7.50;99.90;;;;;;4912123;28;87328;-80
2022/09/21 03:45:07;;;;;;;3.78;0.55;;;7.50;99.90;;;;;;4907853;28;87402;-74
2022/09/21 03:47:33;;;;;;;4.47;0.63;;;7.50;99.90;;;;;;4920080;28;86282;-76
2022/09/21 03:49:58;;;;;;;3.97;0.50;;;7.60;99.90;;;;;;4923651;28;87487;-76
2022/09/21 03:52:24;;;;;;;1.98;0.60;;;7.60;99.90;;;;;;4923724;28;88060;-77
2022/09/21 03:54:50;;;;;;;1.42;0.40;;;7.80;99.90;;;;;;4926011;28;86937;-79
2022/09/21 03:57:16;;;;;;;2.85;0.43;;;7.70;99.90;;;;;;4925243;28;86295;-76
2022/09/21 03:59:41;;;;;;;1.67;0.30;;;7.60;99.90;;;;;;4923490;28;87213;-77
2022/09/21 04:02:07;;;;;;;2.05;0.47;;;7.60;99.90;;;;;;4922616;28;86889;-76
2022/09/21 04:04:33;;;;;;;3.50;0.40;;;7.50;99.90;;;;;;4923814;28;86849;-75
2022/09/21 04:06:59;;;;;;;3.30;0.52;;;7.50;99.90;;;;;;4929381;28;86469;-75
2022/09/21 04:09:25;;;;;;;2.42;0.30;;;7.40;99.90;;;;;;4942178;28;87560;-76
2022/09/21 04:11:52;;;;;;;2.95;0.73;;;7.40;99.90;;;;;;4926783;28;86490;-75
2022/09/21 04:14:17;;;;;;;1.80;0.50;;;7.30;99.90;;;;;;4933605;28;87725;-74
2022/09/21 04:16:43;;;;;;;1.67;0.40;;;7.30;99.90;;;;;;4931799;28;87038;-76
2022/09/21 04:19:09;;;;;;;2.63;0.50;;;7.20;99.90;;;;;;4921070;28;87042;-77
2022/09/21 04:21:35;;;;;;;2.58;0.30;;;7.20;99.90;;;;;;4922961;28;86949;-75
2022/09/21 04:24:01;;;;;;;3.05;0.40;;;7.20;99.90;;;;;;4922982;28;86859;-75
2022/09/21 04:26:30;;;;;;;2.80;0.30;;;7.20;99.90;;;;;;4923993;28;87199;-78
2022/09/21 04:28:55;;;;;;;4.60;0.47;;;7.20;99.90;;;;;;4922276;28;87308;-75
2022/09/21 04:31:23;;;;;;;4.57;0.60;;;7.20;99.90;;;;;;4923846;28;86950;-76
2022/09/21 04:33:53;;;;;;;5.30;0.40;;;7.10;99.90;;;;;;4926545;28;86337;-74
2022/09/21 04:36:21;;;;;;;1.67;0.40;;;7.10;99.90;;;;;;4923770;28;86581;-78
2022/09/21 04:38:47;;;;;;;3.13;0.80;;;7.10;99.90;;;;;;4940670;28;88240;-75
2022/09/21 04:41:14;;;;;;;4.63;0.52;;;7.10;99.90;;;;;;4938746;28;87914;-75
2022/09/21 04:43:44;;;;;;;5.40;0.50;;;7.10;99.90;;;;;;4932244;28;86667;-75
2022/09/21 04:46:12;;;;;;;2.75;0.50;;;7.00;99.90;;;;;;4937924;28;86186;-75
2022/09/21 04:48:38;;;;;;;3.47;0.60;;;7.00;99.90;;;;;;4932275;28;86817;-76
2022/09/21 04:51:08;;;;;;;2.88;0.40;;;6.90;99.90;;;;;;4925791;28;87102;-74
2022/09/21 04:53:34;;;;;;;2.30;0.40;;;6.90;99.90;;;;;;4920498;28;86899;-75
2022/09/21 04:56:00;;;;;;;2.47;0.60;;;6.90;99.90;;;;;;4931913;28;86316;-75
2022/09/21 04:58:26;;;;;;;3.40;0.80;;;6.90;99.90;;;;;;4933503;28;86875;-78
2022/09/21 05:00:54;;;;;;;1.83;0.60;;;6.90;99.90;;;;;;4925189;28;87010;-75
2022/09/21 05:03:20;;;;;;;3.45;1.10;;;6.80;99.90;;;;;;4910797;28;87874;-75
2022/09/21 05:05:47;;;;;;;2.08;0.60;;;6.80;99.90;;;;;;4902985;28;86885;-76
2022/09/21 05:08:13;;;;;;;3.85;0.50;;;6.70;99.90;;;;;;4922827;28;86565;-76
2022/09/21 05:10:39;;;;;;;4.15;0.68;;;6.70;99.90;;;;;;4927229;28;87137;-77
2022/09/21 05:13:04;;;;;;;5.40;0.55;;;6.80;99.90;;;;;;4907824;28;86540;-76
2022/09/21 05:15:30;;;;;;;2.45;0.60;;;6.80;99.90;;;;;;4925561;28;86309;-76
2022/09/21 05:17:56;;;;;;;4.70;0.65;;;7.00;99.90;;;;;;4918826;28;87200;-75
2022/09/21 05:20:22;;;;;;;4.53;0.65;;;7.00;99.90;;;;;;4918855;28;87008;-76
2022/09/21 05:22:48;;;;;;;32.38;2.10;;;7.00;99.90;;;;;;4914177;28;86585;-80
2022/09/21 05:25:13;;;;;;;6.45;1.33;;;7.10;99.90;;;;;;4907310;28;86176;-76
2022/09/21 05:27:39;;;;;;;3.40;0.90;;;7.40;99.90;;;;;;4933624;28;87940;-79
2022/09/21 05:30:05;;;;;;;4.22;0.80;;;8.00;99.90;;;;;;4941991;28;87399;-76
2022/09/21 05:33:06;;;;;;;3.53;0.80;;;8.60;99.90;;;;;;4914259;28;86310;-76
2022/09/21 05:35:32;;;;;;;4.68;0.60;;;8.90;99.90;;;;;;4894775;28;86761;-76
2022/09/21 05:38:12;;;;;;;3.53;0.80;;;10.00;98.30;;;;;;4915288;28;86812;-79
2022/09/21 05:40:38;;;;;;;2.05;0.80;;;10.50;95.30;;;;;;4921211;28;88014;-77
2022/09/21 05:43:04;;;;;;;4.30;1.30;;;11.10;93.40;;;;;;4924487;28;86774;-79
2022/09/21 05:45:30;;;;;;;2.83;0.60;;;11.90;90.10;;;;;;4924614;28;86176;-79
2022/09/21 05:48:41;;;;;;;4.57;0.60;;;12.40;88.40;;;;;;4929273;28;86627;-77
2022/09/21 05:51:34;;;;;;;5.57;0.77;;;13.10;81.50;;;;;;4897925;28;86494;-77
2022/09/21 05:54:20;;;;;;;3.10;0.70;;;13.20;81.20;;;;;;4921247;28;88064;-78
2022/09/21 05:56:57;;;;;;;2.70;0.50;;;13.50;77.20;;;;;;4914035;28;86271;-78
2022/09/21 05:59:40;;;;;;;7.13;1.58;;;14.30;75.70;;;;;;4929938;28;86659;-78
2022/09/21 06:02:24;;;;;;;;;;;14.80;71.50;;;;;;4918234;28;86962;-77
2022/09/21 06:04:50;;;;;;;5.35;1.80;;;14.40;74.10;;;;;;4923852;28;86205;-77
2022/09/21 06:07:16;;;;;;;6.45;1.15;;;14.50;73.00;;;;;;4922981;28;86338;-82
2022/09/21 06:09:42;;;;;;;3.05;0.57;;;14.40;71.90;;;;;;4934744;28;87223;-81
2022/09/21 06:12:10;;;;;;;4.60;1.05;;;13.50;74.20;;;;;;4929495;28;87144;-80
2022/09/21 06:14:36;;;;;;;3.75;0.77;;;13.80;72.50;;;;;;4934434;28;86236;-79
2022/09/21 06:17:02;;;;;;;3.70;0.88;;;14.60;69.10;;;;;;4925600;28;86222;-78
2022/09/21 06:19:28;;;;;;;3.28;0.93;;;16.50;67.00;;;;;;4926365;28;87506;-77
2022/09/21 06:21:53;;;;;;;5.72;0.95;;;18.10;61.70;;;;;;4943395;28;87661;-78
2022/09/21 06:24:19;;;;;;;2.15;0.60;;;19.30;56.80;;;;;;4929391;28;86445;-80
2022/09/21 06:26:45;;;;;;;4.32;0.90;;;19.50;57.60;;;;;;4921260;28;87033;-78
2022/09/21 06:29:10;;;;;;;4.95;1.17;;;20.40;53.10;;;;;;4917161;28;86558;-79
2022/09/21 06:31:36;;;;;;;3.50;1.17;;;20.80;50.90;;;;;;4930348;28;86364;-78
2022/09/21 06:34:02;;;;;;;7.50;1.65;;;20.40;51.50;;;;;;4927877;28;87278;-78
2022/09/21 06:36:28;;;;;;;4.65;1.17;;;20.30;51.70;;;;;;4930820;28;85612;-78
2022/09/21 06:38:53;;;;;;;5.25;1.30;;;21.00;54.10;;;;;;4934860;28;87148;-78
2022/09/21 06:41:19;;;;;;;3.75;1.02;;;22.60;51.20;;;;;;4940458;28;86920;-80
2022/09/21 06:43:45;;;;;;;4.82;1.38;;;23.00;47.30;;;;;;4926385;28;87778;-82
2022/09/21 06:46:10;;;;;;;5.35;1.67;;;22.80;48.00;;;;;;4929396;28;86795;-79
2022/09/21 06:48:36;;;;;;;10.95;1.95;;;22.40;47.30;;;;;;4937984;28;86630;-79
2022/09/21 06:51:04;;;;;;;3.30;1.20;;;21.50;49.40;;;;;;4931312;28;86775;-79
2022/09/21 06:53:32;;;;;;;3.95;1.25;;;19.00;53.60;;;;;;4936732;28;87025;-79
2022/09/21 06:56:08;;;;;;;5.65;1.77;;;19.40;54.30;;;;;;4931020;28;86702;-79
2022/09/21 06:58:36;;;;;;;5.35;1.45;;;20.40;50.80;;;;;;4920743;28;87755;-79
2022/09/21 07:01:10;;;;;;;19.33;3.22;;;21.40;51.40;;;;;;4922412;28;86086;-79
2022/09/21 07:03:37;;;;;;;6.57;2.35;;;24.10;46.90;;;;;;4916494;28;86442;-80
2022/09/21 07:06:03;;;;;;;4.28;1.73;;;25.50;45.00;;;;;;4923131;28;87086;-79
2022/09/21 07:08:29;;;;;;;6.10;2.20;;;25.70;43.20;;;;;;4921761;28;87710;-80
2022/09/21 07:10:59;;;;;;;4.97;1.42;;;24.60;43.50;;;;;;4934400;28;87044;-79
2022/09/21 07:13:26;;;;;;;2.92;1.33;;;23.40;46.50;;;;;;4940193;28;86720;-81
2022/09/21 07:15:52;;;;;;;5.07;1.48;;;24.60;42.70;;;;;;4928122;28;86941;-80
2022/09/21 07:18:18;;;;;;;5.20;1.98;;;26.30;40.20;;;;;;4938137;28;87351;-80
2022/09/21 07:20:43;;;;;;;4.45;1.88;;;22.90;45.00;;;;;;4922957;28;86839;-80
2022/09/21 07:23:10;;;;;;;3.92;2.70;;;21.70;47.40;;;;;;4941246;28;86368;-78
2022/09/21 07:25:36;;;;;;;3.50;1.95;;;23.20;46.50;;;;;;4935376;28;86245;-77
2022/09/21 07:28:02;;;;;;;2.65;1.45;;;25.70;42.70;;;;;;4937906;28;87332;-77
2022/09/21 07:30:28;;;;;;;2.95;1.58;;;26.40;40.10;;;;;;4921562;28;87364;-77
2022/09/21 07:32:53;;;;;;;5.90;1.92;;;26.20;41.20;;;;;;4927177;28;87351;-78
2022/09/21 07:35:19;;;;;;;3.40;2.35;;;24.60;42.90;;;;;;4926791;28;86803;-82
2022/09/21 07:37:45;;;;;;;4.38;1.88;;;26.50;40.10;;;;;;4922101;28;88859;-80
2022/09/21 07:40:10;;;;;;;4.97;2.03;;;28.60;37.40;;;;;;4911440;28;86207;-78
2022/09/21 07:42:36;;;;;;;4.63;1.35;;;26.70;39.90;;;;;;4926260;28;86311;-78
2022/09/21 07:45:02;;;;;;;2.97;1.65;;;25.60;40.30;;;;;;4920977;28;86361;-78
2022/09/21 07:47:27;;;;;;;6.68;1.80;;;25.10;43.20;;;;;;4925043;28;87215;-78
2022/09/21 07:49:54;;;;;;;5.45;2.22;;;26.20;39.80;;;;;;4924869;28;86967;-79
2022/09/21 07:52:20;;;;;;;4.68;1.77;;;29.30;38.90;;;;;;4914096;28;86303;-81
2022/09/21 07:54:46;;;;;;;4.85;1.85;;;28.70;36.90;;;;;;4914251;28;86783;-78
2022/09/21 07:59:57;;;;;;;4.43;2.17;;;27.40;40.00;;;;;;4925240;28;87040;-78
2022/09/21 08:02:23;;;;;;;4.63;2.45;;;25.60;41.20;;;;;;4925362;28;86399;-78
2022/09/21 08:04:48;;;;;;;3.28;1.88;;;29.50;36.10;;;;;;4935991;28;86229;-78
2022/09/21 08:07:14;;;;;;;4.78;1.90;;;30.50;36.10;;;;;;4919451;28;86719;-83
2022/09/21 08:09:40;;;;;;;3.72;2.50;;;32.70;33.30;;;;;;4921999;28;87606;-80
2022/09/21 08:12:07;;;;;;;4.80;2.67;;;32.70;33.60;;;;;;4921273;28;86665;-80
2022/09/21 08:14:34;;;;;;;6.95;2.90;;;32.30;33.20;;;;;;4926608;28;85633;-81
2022/09/21 08:17:00;;;;;;;3.33;1.80;;;32.70;32.50;;;;;;4923279;28;87493;-79
2022/09/21 08:19:26;;;;;;;5.95;2.95;;;30.20;36.10;;;;;;4924073;28;86993;-79
2022/09/21 08:21:52;;;;;;;5.43;2.70;;;32.80;33.10;;;;;;4915246;28;87648;-78
2022/09/21 08:24:19;;;;;;;3.53;1.83;;;35.20;32.50;;;;;;4923519;28;86520;-79
2022/09/21 08:26:45;;;;;;;3.78;3.03;;;35.90;30.70;;;;;;4933762;28;87287;-79
2022/09/21 08:29:13;;;;;;;4.32;2.40;;;37.30;30.50;;;;;;4926114;28;86273;-79
2022/09/21 08:31:39;;;;;;;3.92;2.90;;;37.20;30.00;;;;;;4935762;28;86966;-79
2022/09/21 08:34:04;;;;;;;5.18;4.28;;;37.60;29.50;;;;;;4933914;28;86424;-82
2022/09/21 08:36:30;;;;;;;4.28;3.88;;;36.60;29.60;;;;;;4928404;28;86756;-81
2022/09/21 08:38:56;;;;;;;4.22;3.47;;;37.10;30.00;;;;;;4926148;28;86291;-80
2022/09/21 08:41:25;;;;;;;5.28;4.15;;;38.30;28.60;;;;;;4937574;28;86340;-84
2022/09/21 08:44:20;;;;;;;4.57;3.72;;;38.70;29.20;;;;;;4924011;28;86733;-82
2022/09/21 08:46:50;;;;;;;5.40;3.88;;;39.50;28.40;;;;;;4921640;28;89169;-87
2022/09/21 08:49:20;;;;;;;4.20;3.08;;;38.90;28.30;;;;;;4933962;28;87338;-82
2022/09/21 08:52:13;;;;;;;4.32;3.47;;;38.50;28.00;;;;;;4931101;28;86435;-85
2022/09/21 08:54:53;;;;;;;3.25;2.95;;;36.90;28.20;;;;;;4921392;28;86995;-83
2022/09/21 08:57:21;;;;;;;2.53;1.65;;;38.30;27.60;;;;;;4919860;28;87357;-82
2022/09/21 08:59:48;;;;;;;4.15;3.47;;;39.20;28.00;;;;;;4927348;28;86455;-87
2022/09/21 09:02:32;;;;;;;5.32;3.90;;;41.10;27.60;;;;;;4927886;28;86543;-82
2022/09/21 09:05:10;;;;;;;4.80;4.40;;;42.30;26.50;;;;;;4927145;28;85552;-82
2022/09/21 09:08:00;;;;;;;4.38;3.97;;;42.20;25.70;;;;;;4917498;28;86643;-81
2022/09/21 09:10:44;;;;;;;4.97;4.35;;;40.90;26.00;;;;;;4918191;28;87049;-82
2022/09/21 09:13:22;;;;;;;5.25;4.13;;;40.60;27.10;;;;;;4929442;28;87827;-83
2022/09/21 09:15:53;;;;;;;5.00;4.60;;;40.20;26.50;;;;;;4923722;28;86390;-87
2022/09/21 09:18:50;;;;;;;5.50;4.57;;;39.40;26.90;;;;;;4921224;28;87099;-80
2022/09/21 09:21:28;;;;;;;5.22;4.35;;;37.40;28.40;;;;;;4918917;28;88684;-81
2022/09/21 09:24:04;;;;;;;5.72;4.00;;;38.60;28.30;;;;;;4923486;28;86257;-83
2022/09/21 09:26:54;;;;;;;3.00;2.15;;;39.80;27.70;;;;;;4920809;28;86192;-84
2022/09/21 09:29:19;;;;;;;5.18;4.55;;;40.50;27.40;;;;;;4919731;28;86666;-81
2022/09/21 09:31:46;;;;;;;5.38;4.30;;;41.60;26.80;;;;;;4917932;28;86791;-86
2022/09/21 09:34:16;;;;;;;5.75;4.13;;;42.00;26.50;;;;;;4915286;28;88597;-81
2022/09/21 09:36:45;;;;;;;5.43;4.80;;;41.60;25.80;;;;;;4915989;28;86847;-81
2022/09/21 09:39:13;;;;;;;5.70;4.30;;;42.30;25.60;;;;;;4909623;28;88742;-82
2022/09/21 09:41:51;;;;;;;4.70;4.20;;;43.50;24.50;;;;;;4919951;28;87761;-86
2022/09/21 09:44:38;;;;;;;5.60;5.10;;;43.50;24.40;;;;;;4920520;28;86643;-83
2022/09/21 09:47:27;;;;;;;7.03;4.93;;;44.10;24.50;;;;;;4911471;28;86463;-81
2022/09/21 09:50:08;;;;;;;5.75;5.07;;;43.30;25.10;;;;;;4913973;28;87315;-83
2022/09/21 09:52:34;;;;;;;6.88;6.25;;;42.50;26.00;;;;;;4912807;28;86315;-83
2022/09/21 09:55:14;;;;;;;5.43;4.93;;;41.90;26.40;;;;;;4915764;28;86985;-82
2022/09/21 09:57:40;;;;;;;5.30;4.80;;;41.80;26.00;;;;;;4915231;28;86031;-80
2022/09/21 10:00:11;;;;;;;6.90;5.80;;;42.90;26.00;;;;;;4916392;28;87354;-82
2022/09/21 10:02:48;;;;;;;5.38;4.57;;;44.10;25.50;;;;;;4914650;28;86357;-81
2022/09/21 10:05:27;;;;;;;4.00;2.92;;;42.70;26.60;;;;;;4913406;28;89508;-81
2022/09/21 10:07:53;;;;;;;5.88;5.13;;;41.70;26.60;;;;;;4917574;28;86712;-82
2022/09/21 10:10:27;;;;;;;5.80;5.30;;;42.80;26.30;;;;;;4914132;28;86672;-84
2022/09/21 10:12:56;;;;;;;4.95;4.53;;;42.20;26.30;;;;;;4909952;28;86629;-83
2022/09/21 10:15:24;;;;;;;5.20;4.65;;;40.90;27.00;;;;;;4904513;28;87420;-84
2022/09/21 10:18:05;;;;;;;4.95;4.35;;;39.90;26.40;;;;;;4907130;28;86647;-84
2022/09/21 10:20:31;;;;;;;3.67;3.38;;;38.10;27.20;;;;;;4910644;28;87466;-81
2022/09/21 10:22:59;;;;;;;5.25;3.97;;;32.80;30.40;;;;;;4908921;28;86394;-82
2022/09/21 10:25:25;;;;;;;4.07;3.35;;;31.60;31.10;;;;;;4909790;28;86848;-83
2022/09/21 10:27:53;;;;;;;4.15;2.97;;;29.50;31.50;;;;;;4908741;28;86936;-79
2022/09/21 10:30:33;;;;;;;3.50;2.78;;;27.90;33.50;;;;;;4905706;28;88151;-78
2022/09/21 10:32:59;;;;;;;2.92;2.35;;;26.80;36.50;;;;;;4912104;28;87141;-81
2022/09/21 10:35:25;;;;;;;4.53;2.42;;;25.50;37.60;;;;;;4913467;28;86932;-83
2022/09/21 10:38:18;;;;;;;2.70;1.48;;;24.50;39.10;;;;;;4906547;28;87102;-78
2022/09/21 10:40:45;;;;;;;3.35;1.55;;;23.20;42.40;;;;;;4911163;28;86921;-82
2022/09/21 10:43:27;;;;;;;4.95;1.23;;;22.10;43.90;;;;;;4910534;28;86920;-79
2022/09/21 10:45:55;;;;;;;2.40;1.23;;;21.50;45.10;;;;;;4909980;28;86722;-81
2022/09/21 10:48:23;;;;;;;2.40;0.82;;;21.10;44.80;;;;;;4913437;28;85747;-81
2022/09/21 10:50:50;;;;;;;3.58;0.55;;;20.90;44.50;;;;;;4906790;28;87176;-79
2022/09/21 10:53:27;;;;;;;1.60;0.80;;;20.70;45.60;;;;;;4908059;28;86942;-81
2022/09/21 10:56:27;;;;;;;2.78;1.25;;;20.60;44.00;;;;;;4903745;28;87415;-79
2022/09/21 10:59:21;;;;;;;3.10;1.30;;;20.60;43.00;;;;;;4909231;28;86438;-83
2022/09/21 11:01:49;;;;;;;3.75;0.93;;;20.20;47.20;;;;;;4886518;28;87391;-83
2022/09/21 11:04:20;;;;;;;5.20;0.80;;;19.50;50.10;;;;;;4910849;28;86268;-80
2022/09/21 11:06:57;;;;;;;1.63;0.70;;;19.50;49.90;;;;;;4927562;28;86965;-82
2022/09/21 11:09:33;;;;;;;2.53;0.77;;;19.60;48.80;;;;;;4922061;28;86614;-83
2022/09/21 11:12:31;;;;;;;1.58;0.52;;;19.30;52.30;;;;;;4916686;28;87291;-83
2022/09/21 11:15:32;;;;;;;4.65;0.70;;;19.20;50.60;;;;;;4910889;28;87767;-88
2022/09/21 11:18:12;;;;;;;1.58;0.70;;;19.60;49.40;;;;;;4909955;28;86969;-84
2022/09/21 11:20:48;;;;;;;5.07;0.52;;;19.50;49.30;;;;;;4934789;28;87076;-86
2022/09/21 11:23:39;;;;;;;3.00;0.68;;;19.70;48.80;;;;;;4931618;28;88015;-83
2022/09/21 11:26:24;;;;;;;2.45;0.60;;;19.40;48.30;;;;;;4917915;28;87322;-79
2022/09/21 11:29:09;;;;;;;2.10;0.20;;;18.80;50.90;;;;;;4923794;28;86179;-83
2022/09/21 11:32:19;;;;;;;2.15;0.45;;;18.70;52.00;;;;;;4909530;28;86351;-79
2022/09/21 11:35:09;;;;;;;1.73;0.20;;;18.50;50.90;;;;;;4911164;28;86588;-82
2022/09/21 11:38:16;;;;;;;2.67;0.50;;;18.60;51.90;;;;;;4925248;28;86940;-82
2022/09/21 11:41:14;;;;;;;1.65;0.70;;;18.80;51.60;;;;;;4904367;28;86843;-82
2022/09/21 11:44:14;;;;;;;3.92;0.40;;;19.10;51.30;;;;;;4926111;28;86068;-80
2022/09/21 11:47:28;;;;;;;2.42;0.20;;;19.10;51.30;;;;;;4911974;28;86921;-83
2022/09/21 11:50:39;;;;;;;1.95;0.50;;;19.00;51.90;;;;;;4844161;28;87964;-79
2022/09/21 11:53:17;;;;;;;1.83;0.20;;;18.70;48.90;;;;;;4920719;28;87729;-82
2022/09/21 11:56:01;;;;;;;2.72;0.65;;;19.00;51.90;;;;;;4918518;28;86459;-80
2022/09/21 11:58:27;;;;;;;1.98;0.35;;;19.10;50.40;;;;;;4912551;28;87015;-81
2022/09/21 12:01:27;;;;;;;2.67;0.60;;;19.00;51.80;;;;;;4922863;28;87258;-81
2022/09/21 12:04:18;;;;;;;3.30;0.70;;;18.70;51.40;;;;;;4909869;28;86294;-81
2022/09/21 12:07:06;;;;;;;2.08;0.52;;;18.60;54.20;;;;;;4920542;28;86700;-82
2022/09/21 12:09:42;;;;;;;2.97;0.50;;;18.60;56.20;;;;;;4906593;28;86556;-83
2022/09/21 12:12:33;;;;;;;1.70;0.50;;;18.60;54.40;;;;;;4916697;28;86914;-82
2022/09/21 12:15:31;;;;;;;1.23;0.40;;;18.80;51.10;;;;;;4909668;28;87084;-82
2022/09/21 12:18:06;;;;;;;2.35;0.40;;;18.80;50.60;;;;;;4922513;28;86498;-82
2022/09/21 12:20:55;;;;;;;4.00;0.85;;;19.00;51.60;;;;;;4928108;28;87932;-81
2022/09/21 12:23:29;;;;;;;1.77;0.68;;;19.10;53.10;;;;;;4915191;28;87861;-81
2022/09/21 12:25:57;;;;;;;1.83;0.20;;;19.10;51.10;;;;;;4916383;28;87110;-80
2022/09/21 12:28:46;;;;;;;2.67;0.55;;;18.90;52.30;;;;;;4921162;28;86687;-83
2022/09/21 12:31:19;;;;;;;3.25;1.10;;;18.80;52.60;;;;;;4925508;28;86946;-80
2022/09/21 12:34:00;;;;;;;1.60;0.38;;;18.90;52.50;;;;;;4922881;28;87114;-82
2022/09/21 12:36:57;;;;;;;1.70;0.30;;;19.00;51.80;;;;;;4924504;28;86845;-84
2022/09/21 12:39:26;;;;;;;2.35;0.40;;;18.90;51.20;;;;;;4904687;28;85705;-82
2022/09/21 12:42:27;;;;;;;2.42;0.35;;;18.80;48.80;;;;;;4925648;28;86585;-82
2022/09/21 12:45:00;;;;;;;2.08;0.30;;;18.60;49.40;;;;;;4872513;28;86334;-83
2022/09/21 12:47:45;;;;;;;1.23;0.38;;;18.50;48.40;;;;;;4914551;28;87584;-88
2022/09/21 12:50:53;;;;;;;1.00;0.30;;;18.60;47.80;;;;;;4913965;28;86596;-80
2022/09/21 12:53:26;;;;;;;1.20;0.25;;;18.50;47.50;;;;;;4891225;28;86616;-82
2022/09/21 12:56:22;;;;;;;2.05;0.30;;;18.60;47.60;;;;;;4917883;28;86788;-83
2022/09/21 12:59:13;;;;;;;1.73;0.55;;;18.70;47.80;;;;;;4915921;28;86824;-81
2022/09/21 13:01:48;;;;;;;2.20;0.50;;;18.60;50.20;;;;;;4914137;28;86606;-80
2022/09/21 13:04:40;;;;;;;1.42;0.30;;;18.60;51.20;;;;;;4911644;28;87250;-81
2022/09/21 13:07:18;;;;;;;1.98;0.50;;;18.60;50.10;;;;;;4913818;28;86293;-82
2022/09/21 13:09:45;;;;;;;1.20;0.32;;;18.50;49.10;;;;;;4916573;28;86390;-81
2022/09/21 13:12:23;;;;;;;2.22;0.20;;;18.70;48.10;;;;;;4917493;28;86907;-80
2022/09/21 13:15:12;;;;;;;1.75;0.32;;;18.70;48.40;;;;;;4914743;28;87654;-79
2022/09/21 13:17:38;;;;;;;;;;;18.70;49.70;;;;;;4924014;28;87848;-79
2022/09/21 13:20:14;;;;;;;1.55;0.98;;;18.50;49.30;;;;;;4921882;28;86475;-79
2022/09/21 13:22:40;;;;;;;;;;;18.40;48.50;;;;;;4927957;28;86773;-80
2022/09/21 13:25:27;;;;;;;1.30;0.30;;;18.50;49.10;;;;;;4921761;28;87224;-80
2022/09/21 13:28:12;;;;;;;1.70;0.68;;;18.60;48.90;;;;;;4919700;28;86708;-80
2022/09/21 13:31:07;;;;;;;1.75;0.30;;;18.60;49.40;;;;;;4914731;28;86818;-80
2022/09/21 13:33:40;;;;;;;2.03;0.50;;;18.50;50.70;;;;;;4918516;28;85615;-79
2022/09/21 13:36:29;;;;;;;1.55;0.30;;;18.50;50.90;;;;;;4922441;28;87155;-80
2022/09/21 13:39:12;;;;;;;;;;;18.50;50.00;;;;;;4920898;28;89654;-78
2022/09/21 13:41:38;;;;;;;1.25;0.30;;;18.50;50.00;;;;;;4918067;28;87090;-78
2022/09/21 13:44:19;;;;;;;1.30;0.20;;;18.60;50.00;;;;;;4916988;28;87829;-79
2022/09/21 13:46:48;;;;;;;0.93;0.35;;;18.60;48.70;;;;;;4921001;28;86341;-80
2022/09/21 13:49:16;;;;;;;2.47;0.30;;;18.50;49.00;;;;;;4915000;28;86978;-78
2022/09/21 13:52:07;;;;;;;2.05;0.28;;;18.40;52.30;;;;;;4919713;28;86772;-79
2022/09/21 13:54:44;;;;;;;2.53;0.63;;;18.30;52.50;;;;;;4918304;28;86462;-80
2022/09/21 13:57:16;;;;;;;2.10;0.20;;;18.50;50.20;;;;;;4927198;28;87297;-79
2022/09/21 13:59:44;;;;;;;2.90;0.40;;;18.40;50.70;;;;;;4922649;28;86396;-79
2022/09/21 14:02:31;;;;;;;1.20;0.40;;;18.30;52.70;;;;;;4932043;28;86262;-80
2022/09/21 14:05:05;;;;;;;2.90;0.30;;;18.20;51.10;;;;;;4917137;28;86752;-79
2022/09/21 14:07:32;;;;;;;1.45;0.30;;;18.30;51.80;;;;;;4920325;28;87637;-81
2022/09/21 14:10:02;;;;;;;1.33;0.22;;;18.30;50.70;;;;;;4915977;28;87265;-81
2022/09/21 14:12:36;;;;;;;1.85;0.30;;;18.20;52.30;;;;;;4916349;28;86822;-80
2022/09/21 14:15:33;;;;;;;1.98;0.20;;;18.10;52.20;;;;;;4915187;28;87177;-83
2022/09/21 14:18:15;;;;;;;1.48;0.30;;;18.10;51.20;;;;;;4914366;28;87835;-80
2022/09/21 14:21:07;;;;;;;1.65;0.30;;;18.00;51.20;;;;;;4923178;28;87256;-80
2022/09/21 14:23:34;;;;;;;1.98;0.35;;;17.90;51.50;;;;;;4913692;28;87067;-84
2022/09/21 14:26:01;;;;;;;3.25;0.30;;;18.00;52.90;;;;;;4916219;28;87353;-80
2022/09/21 14:28:37;;;;;;;0.70;0.25;;;18.00;52.00;;;;;;4915313;28;87169;-81
2022/09/21 14:31:17;;;;;;;4.13;0.40;;;18.10;51.70;;;;;;4917633;28;87012;-82
2022/09/21 14:34:03;;;;;;;3.45;0.40;;;18.10;52.30;;;;;;4916958;28;87552;-81
2022/09/21 14:36:40;;;;;;;0.63;0.10;;;18.10;51.70;;;;;;4908654;28;86297;-80
2022/09/21 14:39:18;;;;;;;3.40;0.30;;;18.00;51.70;;;;;;4912168;28;86756;-82
2022/09/21 14:41:47;;;;;;;4.95;0.30;;;17.90;51.40;;;;;;4913255;28;86334;-81
2022/09/21 14:44:22;;;;;;;3.38;0.30;;;17.90;52.40;;;;;;4919664;28;86930;-79
2022/09/21 14:47:06;;;;;;;2.45;0.10;;;17.90;52.00;;;;;;4911896;28;86633;-81
2022/09/21 14:49:42;;;;;;;2.30;0.20;;;17.90;55.10;;;;;;4916605;28;87263;-80
2022/09/21 14:52:33;;;;;;;3.20;0.38;;;17.90;52.70;;;;;;4915385;28;86233;-81
2022/09/21 14:55:06;;;;;;;1.05;0.32;;;17.90;54.00;;;;;;4898849;28;88248;-80
2022/09/21 14:57:44;;;;;;;2.28;0.43;;;18.00;51.70;;;;;;4923993;28;86896;-80
2022/09/21 15:00:19;;;;;;;2.55;0.30;;;17.80;53.00;;;;;;4924012;28;88740;-81
2022/09/21 15:02:48;;;;;;;3.45;0.35;;;17.70;52.90;;;;;;4919194;28;87082;-79
2022/09/21 15:05:32;;;;;;;1.10;0.50;;;17.80;53.60;;;;;;4923455;28;86416;-80
2022/09/21 15:11:37;;;;;;;1.27;0.30;;;17.80;52.40;;;;;;4916201;28;86600;-80
2022/09/21 15:14:03;;;;;;;1.33;0.20;;;17.70;53.50;;;;;;4916698;28;86994;-81
2022/09/21 15:16:47;;;;;;;0.73;0.20;;;17.60;52.30;;;;;;4917596;28;86610;-82
2022/09/21 15:19:24;;;;;;;3.55;0.40;;;17.60;53.20;;;;;;4915376;28;86634;-78
2022/09/21 15:21:55;;;;;;;2.00;0.38;;;17.60;53.30;;;;;;4918360;28;87012;-75
2022/09/21 15:24:23;;;;;;;1.38;0.20;;;17.60;54.20;;;;;;4926352;28;86212;-77
2022/09/21 15:26:50;;;;;;;1.42;0.30;;;17.60;53.20;;;;;;4926724;28;87848;-77
2022/09/21 15:29:24;;;;;;;2.85;0.30;;;17.60;54.40;;;;;;4900351;28;86261;-76
2022/09/21 15:31:51;;;;;;;0.90;0.30;;;17.70;54.20;;;;;;4915004;28;87771;-79
2022/09/21 15:34:17;;;;;;;1.60;0.40;;;17.60;53.40;;;;;;4926016;28;87029;-76
2022/09/21 15:36:43;;;;;;;2.30;0.43;;;17.50;54.50;;;;;;4922971;28;86741;-77
2022/09/21 15:39:30;;;;;;;5.32;1.17;;;17.50;54.60;;;;;;4927358;28;86839;-75
2022/09/21 15:42:18;;;;;;;2.42;0.35;;;17.40;55.30;;;;;;4925992;28;86802;-75
2022/09/21 15:44:47;;;;;;;1.42;0.10;;;17.40;54.00;;;;;;4915322;28;87306;-76
2022/09/21 15:47:15;;;;;;;0.80;0.20;;;17.50;53.50;;;;;;4922084;28;86667;-75
2022/09/21 15:49:42;;;;;;;0.60;0.20;;;17.50;53.40;;;;;;4915954;28;86830;-77
2022/09/21 15:52:41;;;;;;;2.53;0.30;;;17.50;53.70;;;;;;4920495;28;88183;-76
2022/09/21 15:55:18;;;;;;;1.17;0.30;;;17.50;53.60;;;;;;4913255;28;89463;-76
2022/09/21 15:57:44;;;;;;;2.97;0.30;;;17.30;53.80;;;;;;4921477;28;86381;-76
2022/09/21 16:00:15;;;;;;;4.93;1.58;;;17.20;53.90;;;;;;4919040;28;86883;-77
2022/09/21 16:02:54;;;;;;;4.78;1.50;;;17.10;55.10;;;;;;4919288;28;86605;-76
2022/09/21 16:05:21;;;;;;;1.30;0.40;;;17.00;55.40;;;;;;4924411;28;87003;-77
2022/09/21 16:07:47;;;;;;;0.60;0.20;;;17.10;54.50;;;;;;4917987;28;86631;-75
2022/09/21 16:10:31;;;;;;;4.32;0.15;;;17.10;54.50;;;;;;4918990;28;86137;-77
2022/09/21 16:16:11;;;;;;;11.18;5.35;;;17.00;55.80;;;;;;4911951;28;87260;-77
2022/09/21 16:18:48;;;;;;;2.67;1.08;;;16.90;56.20;;;;;;4920599;28;87587;-79
2022/09/21 16:21:26;;;;;;;2.35;0.70;;;16.80;55.60;;;;;;4917409;28;86285;-81